createdAt,value
2018-06-11T00:00:27.236Z,11.57
2018-06-11T00:02:57.336Z,11.10
2018-06-11T00:05:28.026Z,10.50
2018-06-11T00:07:58.848Z,9.53
2018-06-11T00:10:29.173Z,10.27
2018-06-11T00:12:59.462Z,10.50
2018-06-11T00:15:29.934Z,9.50
2018-06-11T00:18:00.709Z,10.23
2018-06-11T00:20:31.214Z,9.37
2018-06-11T00:23:02.272Z,10.40
2018-06-11T00:25:32.765Z,9.80
2018-06-11T00:28:03.230Z,9.90
2018-06-11T00:30:34.133Z,9.53
2018-06-11T00:33:04.719Z,8.53
2018-06-11T00:35:35.290Z,9.40
2018-06-11T00:38:05.658Z,9.80
2018-06-11T00:40:38.409Z,9.90
2018-06-11T00:43:08.745Z,8.63
2018-06-11T00:45:39.302Z,10.07
2018-06-11T00:48:09.621Z,8.63
2018-06-11T00:50:40.505Z,9.20
2018-06-11T00:53:10.993Z,9.40
2018-06-11T00:55:52.078Z,8.90
2018-06-11T00:58:22.486Z,9.33
2018-06-11T01:00:52.925Z,7.90
2018-06-11T01:03:23.799Z,8.90
2018-06-11T01:05:54.337Z,8.07
2018-06-11T01:08:25.892Z,8.73
2018-06-11T01:10:56.811Z,9.20
2018-06-11T01:13:27.222Z,8.23
2018-06-11T01:15:57.716Z,7.90
2018-06-11T01:18:28.507Z,8.47
2018-06-11T01:20:58.873Z,7.57
2018-06-11T01:23:29.125Z,7.33
2018-06-11T01:26:01.160Z,7.67
2018-06-11T01:28:31.563Z,8.60
2018-06-11T01:31:02.073Z,8.07
2018-06-11T01:33:32.855Z,9.30
2018-06-11T01:36:03.647Z,8.40
2018-06-11T01:38:34.191Z,8.67
2018-06-11T01:41:05.418Z,10.23
2018-06-11T02:11:45.760Z,7.00
2018-06-11T02:14:15.833Z,8.73
2018-06-11T02:16:45.902Z,7.07
2018-06-11T02:19:16.152Z,7.30
2018-06-11T02:21:47.566Z,6.60
2018-06-11T02:24:17.637Z,6.90
2018-06-11T02:26:47.711Z,7.10
2018-06-11T02:29:17.285Z,6.67
2018-06-11T02:31:47.374Z,6.47
2018-06-11T02:34:17.482Z,6.03
2018-06-11T02:36:47.880Z,6.13
2018-06-11T02:39:17.973Z,6.10
2018-06-11T02:41:48.841Z,5.97
2018-06-11T02:44:20.238Z,6.20
2018-06-11T02:46:50.310Z,6.20
2018-06-11T02:49:20.430Z,6.43
2018-06-11T02:51:50.537Z,6.00
2018-06-11T02:54:37.715Z,6.80
2018-06-11T02:57:07.809Z,5.93
2018-06-11T02:59:37.944Z,5.73
2018-06-11T03:02:08.257Z,5.67
2018-06-11T03:04:39.669Z,5.87
2018-06-11T03:07:09.802Z,5.77
2018-06-11T03:09:39.899Z,6.07
2018-06-11T03:12:13.208Z,6.13
2018-06-11T03:14:43.265Z,4.60
2018-06-11T03:17:13.333Z,6.20
2018-06-11T03:19:43.407Z,6.20
2018-06-11T03:25:04.982Z,5.80
2018-06-11T03:27:35.145Z,6.00
2018-06-11T03:30:05.342Z,5.80
2018-06-11T03:32:37.003Z,5.13
2018-06-11T03:35:07.265Z,6.83
2018-06-11T03:37:37.385Z,5.33
2018-06-11T03:40:07.586Z,6.43
2018-06-11T03:42:37.848Z,5.63
2018-06-11T03:45:08.026Z,5.37
2018-06-11T03:47:38.542Z,6.80
2018-06-11T03:50:09.161Z,5.97
2018-06-11T03:52:39.270Z,5.67
2018-06-11T03:55:09.322Z,6.43
2018-06-11T03:57:39.406Z,6.37
2018-06-11T04:00:09.580Z,6.73
2018-06-11T04:02:40.037Z,5.97
2018-06-11T04:05:10.117Z,6.80
2018-06-11T04:07:40.257Z,6.63
2018-06-11T04:10:10.377Z,7.33
2018-06-11T04:12:40.632Z,7.00
2018-06-11T04:15:10.811Z,7.03
2018-06-11T04:17:46.767Z,7.60
2018-06-11T04:20:16.930Z,7.20
2018-06-11T04:22:47.107Z,7.83
2018-06-11T04:25:26.107Z,8.00
2018-06-11T04:27:56.270Z,7.63
2018-06-11T04:30:26.771Z,7.50
2018-06-11T04:32:57.506Z,7.50
2018-06-11T04:35:27.976Z,7.13
2018-06-11T04:38:09.034Z,7.30
2018-06-11T04:40:40.617Z,7.53
2018-06-11T04:43:10.857Z,7.70
2018-06-11T04:45:41.109Z,7.60
2018-06-11T04:48:41.531Z,8.87
2018-06-11T04:51:12.851Z,7.80
2018-06-11T04:53:43.191Z,7.37
2018-06-11T04:56:13.470Z,7.67
2018-06-11T04:58:43.649Z,8.47
2018-06-11T05:01:13.901Z,7.70
2018-06-11T05:03:44.055Z,7.83
2018-06-11T05:06:14.221Z,8.20
2018-06-11T05:08:46.759Z,8.00
2018-06-11T05:11:17.053Z,8.37
2018-06-11T05:13:47.233Z,9.00
2018-06-11T05:16:17.383Z,7.70
2018-06-11T05:18:47.882Z,7.87
2018-06-11T05:21:18.148Z,8.60
2018-06-11T05:23:48.386Z,8.33
2018-06-11T05:26:18.939Z,8.13
2018-06-11T05:28:49.180Z,7.80
2018-06-11T05:31:20.144Z,8.40
2018-06-11T05:33:51.455Z,7.70
2018-06-11T05:36:24.101Z,9.00
2018-06-11T05:38:54.250Z,8.23
2018-06-11T05:41:24.388Z,8.00
2018-06-11T05:43:54.569Z,8.73
2018-06-11T05:46:29.505Z,8.33
2018-06-11T05:48:59.651Z,9.27
2018-06-11T05:51:29.282Z,7.67
2018-06-11T05:53:59.296Z,7.40
2018-06-11T05:56:35.474Z,8.87
2018-06-11T05:59:05.610Z,7.43
2018-06-11T06:01:35.958Z,8.27
2018-06-11T06:04:06.164Z,7.97
2018-06-11T06:06:36.450Z,8.30
2018-06-11T06:09:07.986Z,8.10
2018-06-11T06:11:38.457Z,8.70
2018-06-11T06:14:08.666Z,9.50
2018-06-11T06:16:38.839Z,7.73
2018-06-11T06:19:09.122Z,7.83
2018-06-11T06:21:39.268Z,8.33
2018-06-11T06:24:09.545Z,7.87
2018-06-11T06:26:41.296Z,8.97
2018-06-11T06:29:10.917Z,7.37
2018-06-11T06:31:41.115Z,8.00
2018-06-11T06:34:11.317Z,7.30
2018-06-11T06:36:41.502Z,8.20
2018-06-11T06:39:11.686Z,7.63
2018-06-11T06:41:47.393Z,7.27
2018-06-11T06:44:17.677Z,6.50
2018-06-11T06:46:47.883Z,7.57
2018-06-11T06:49:18.090Z,7.63
2018-06-11T06:51:48.382Z,7.10
2018-06-11T06:54:18.657Z,7.40
2018-06-11T06:56:48.971Z,7.30
2018-06-11T06:59:26.019Z,7.00
2018-06-11T07:01:56.232Z,7.40
2018-06-11T07:04:26.379Z,7.00
2018-06-11T07:06:56.541Z,7.77
2018-06-11T07:09:29.314Z,7.07
2018-06-11T07:12:01.307Z,6.70
2018-06-11T07:14:34.069Z,7.17
2018-06-11T07:17:04.704Z,7.03
2018-06-11T07:19:34.838Z,7.43
2018-06-11T07:22:04.632Z,8.40
2018-06-11T07:24:34.772Z,6.60
2018-06-11T07:27:04.921Z,7.00
2018-06-11T07:29:35.093Z,7.07
2018-06-11T07:32:05.590Z,7.30
2018-06-11T07:34:35.765Z,7.67
2018-06-11T07:37:05.983Z,8.07
2018-06-11T07:39:36.205Z,8.07
2018-06-11T07:42:06.345Z,7.50
2018-06-11T07:44:36.473Z,7.90
2018-06-11T07:47:06.653Z,8.23
2018-06-11T07:49:36.930Z,8.30
2018-06-11T07:52:07.284Z,9.17
2018-06-11T07:54:37.618Z,8.47
2018-06-11T07:57:08.114Z,8.20
2018-06-11T07:59:38.219Z,8.17
2018-06-11T08:02:08.543Z,8.77
2018-06-11T08:04:38.836Z,8.33
2018-06-11T08:07:09.206Z,8.87
2018-06-11T08:09:39.379Z,8.10
2018-06-11T08:12:10.839Z,8.07
2018-06-11T08:14:40.986Z,7.37
2018-06-11T08:17:11.269Z,9.27
2018-06-11T08:19:41.410Z,8.40
2018-06-11T08:22:11.648Z,8.10
2018-06-11T08:24:41.837Z,8.47
2018-06-11T08:27:13.330Z,8.57
2018-06-11T08:29:43.626Z,8.93
2018-06-11T08:32:13.933Z,7.77
2018-06-11T08:34:44.073Z,7.37
2018-06-11T08:37:19.233Z,7.27
2018-06-11T08:39:49.463Z,7.37
2018-06-11T08:42:19.778Z,7.90
2018-06-11T08:44:49.981Z,7.57
2018-06-11T08:47:22.687Z,7.93
2018-06-11T08:49:53.047Z,8.53
2018-06-11T08:52:23.447Z,8.40
2018-06-11T08:54:55.950Z,7.80
2018-06-11T08:57:26.166Z,8.43
2018-06-11T08:59:56.520Z,7.20
2018-06-11T09:02:26.765Z,7.40
2018-06-11T09:04:57.226Z,8.10
2018-06-11T09:07:27.529Z,8.40
2018-06-11T09:09:57.213Z,8.17
2018-06-11T09:12:27.414Z,8.00
2018-06-11T09:14:57.937Z,7.30
2018-06-11T09:17:28.262Z,8.23
2018-06-11T09:19:58.479Z,8.17
2018-06-11T09:22:28.810Z,8.63
2018-06-11T09:24:59.100Z,9.10
2018-06-11T09:27:29.290Z,7.60
2018-06-11T09:30:07.518Z,7.50
2018-06-11T09:32:38.197Z,7.80
2018-06-11T09:35:08.505Z,6.77
2018-06-11T09:37:39.110Z,8.50
2018-06-11T09:40:09.395Z,8.20
2018-06-11T09:42:39.657Z,8.03
2018-06-11T09:45:09.319Z,9.73
2018-06-11T09:47:39.578Z,8.40
2018-06-11T09:50:09.754Z,7.90
2018-06-11T09:52:41.375Z,9.70
2018-06-11T09:55:11.547Z,10.47
2018-06-11T09:57:41.753Z,8.70
2018-06-11T10:00:17.109Z,8.60
2018-06-11T10:02:47.405Z,9.50
2018-06-11T10:05:17.606Z,8.60
2018-06-11T10:07:47.814Z,11.07
2018-06-11T10:10:18.209Z,10.03
2018-06-11T10:12:49.725Z,8.37
2018-06-11T10:15:19.871Z,9.80
2018-06-11T10:17:50.019Z,10.00
2018-06-11T10:20:20.469Z,8.20
2018-06-11T10:22:51.981Z,9.70
2018-06-11T10:25:22.195Z,9.37
2018-06-11T10:27:52.386Z,9.83
2018-06-11T10:30:22.666Z,8.93
2018-06-11T10:32:52.800Z,9.90
2018-06-11T10:35:22.450Z,9.27
2018-06-11T10:37:52.760Z,9.57
2018-06-11T10:40:22.915Z,9.57
2018-06-11T10:42:53.061Z,8.73
2018-06-11T10:45:23.209Z,9.53
2018-06-11T10:47:53.359Z,9.23
2018-06-11T10:50:23.505Z,9.30
2018-06-11T10:52:53.648Z,9.27
2018-06-11T10:55:23.810Z,9.30
2018-06-11T10:57:54.183Z,10.80
2018-06-11T11:00:24.890Z,9.60
2018-06-11T11:02:55.090Z,10.80
2018-06-11T11:05:25.260Z,11.00
2018-06-11T11:07:55.521Z,9.53
2018-06-11T11:10:26.042Z,9.13
2018-06-11T11:12:56.249Z,8.60
2018-06-11T11:15:26.812Z,8.70
2018-06-11T11:17:57.379Z,8.70
2018-06-11T11:20:28.518Z,9.53
2018-06-11T11:22:59.289Z,9.63
2018-06-11T11:25:29.491Z,10.70
2018-06-11T11:28:00.071Z,8.90
2018-06-11T11:30:30.501Z,10.13
2018-06-11T11:33:00.766Z,9.20
2018-06-11T11:35:30.918Z,8.50
2018-06-11T11:38:01.407Z,11.37
2018-06-11T11:40:31.699Z,9.90
2018-06-11T11:43:01.941Z,9.40
2018-06-11T11:45:32.611Z,10.17
2018-06-11T11:48:02.776Z,10.63
2018-06-11T11:50:33.061Z,11.93
2018-06-11T11:53:03.217Z,9.60
2018-06-11T11:55:33.814Z,9.03
2018-06-11T11:58:04.134Z,9.50
2018-06-11T12:00:34.277Z,9.47
2018-06-11T12:03:04.511Z,9.70
2018-06-11T12:05:34.676Z,9.27
2018-06-11T12:08:04.957Z,9.33
2018-06-11T12:10:35.098Z,9.20
2018-06-11T12:13:04.767Z,9.83
2018-06-11T12:15:35.090Z,9.40
2018-06-11T12:18:11.829Z,11.30
2018-06-11T12:20:42.058Z,10.10
2018-06-11T12:23:12.247Z,9.90
2018-06-11T12:25:42.471Z,11.10
2018-06-11T12:28:13.388Z,10.87
2018-06-11T12:30:43.543Z,9.87
2018-06-11T12:33:13.781Z,10.40
2018-06-11T12:35:44.161Z,9.87
2018-06-11T12:38:14.400Z,8.90
2018-06-11T12:40:44.829Z,9.50
2018-06-11T12:43:15.164Z,9.83
2018-06-11T12:45:45.666Z,10.40
2018-06-11T12:48:15.967Z,10.60
2018-06-11T12:50:46.150Z,8.40
2018-06-11T12:53:16.382Z,9.70
2018-06-11T12:55:46.531Z,10.33
2018-06-11T12:58:16.780Z,8.93
2018-06-11T13:00:48.339Z,11.20
2018-06-11T13:03:18.629Z,10.47
2018-06-11T13:05:48.900Z,10.20
2018-06-11T13:08:19.090Z,12.10
2018-06-11T13:10:49.790Z,9.70
2018-06-11T13:13:19.958Z,9.50
2018-06-11T13:15:50.295Z,8.60
2018-06-11T13:18:20.656Z,9.20
2018-06-11T13:20:50.842Z,9.70
2018-06-11T13:23:21.067Z,9.23
2018-06-11T13:25:51.961Z,7.90
2018-06-11T13:28:22.324Z,7.97
2018-06-11T13:30:52.778Z,9.27
2018-06-11T13:33:23.095Z,10.50
2018-06-11T13:35:53.407Z,9.07
2018-06-11T13:38:23.684Z,9.53
2018-06-11T13:40:54.213Z,8.57
2018-06-11T13:43:24.487Z,9.57
2018-06-11T13:45:54.746Z,9.53
2018-06-11T13:48:24.910Z,9.67
2018-06-11T13:51:03.077Z,10.70
2018-06-11T13:53:35.081Z,9.00
2018-06-11T13:56:05.332Z,9.47
2018-06-11T13:58:35.902Z,10.67
2018-06-11T14:01:06.641Z,12.13
2018-06-11T14:03:37.042Z,10.67
2018-06-11T14:06:11.678Z,9.40
2018-06-11T14:08:41.974Z,9.30
2018-06-11T14:11:12.165Z,8.70
2018-06-11T14:13:42.526Z,8.20
2018-06-11T14:16:14.527Z,9.20
2018-06-11T14:18:44.687Z,7.93
2018-06-11T14:21:14.922Z,8.17
2018-06-11T14:23:45.143Z,7.77
2018-06-11T14:26:15.763Z,7.13
2018-06-11T14:28:46.195Z,7.50
2018-06-11T14:31:16.442Z,8.60
2018-06-11T14:33:46.689Z,7.90
2018-06-11T14:36:16.812Z,6.57
2018-06-11T14:38:46.947Z,9.00
2018-06-11T14:41:18.490Z,8.07
2018-06-11T14:43:48.717Z,7.97
2018-06-11T14:46:19.170Z,6.80
2018-06-11T14:49:01.054Z,5.43
2018-06-11T14:51:31.238Z,5.40
2018-06-11T14:54:01.381Z,6.73
2018-06-11T14:56:31.545Z,5.83
2018-06-11T14:59:03.034Z,7.40
2018-06-11T15:01:33.266Z,6.33
2018-06-11T15:04:03.372Z,7.90
2018-06-11T15:06:33.505Z,7.20
2018-06-11T15:09:04.173Z,7.10
2018-06-11T15:11:34.363Z,9.20
2018-06-11T15:14:04.701Z,8.50
2018-06-11T15:16:34.966Z,7.67
2018-06-11T15:19:05.351Z,7.37
2018-06-11T15:21:40.594Z,7.83
2018-06-11T15:24:12.766Z,7.90
2018-06-11T15:26:43.938Z,7.60
2018-06-11T15:29:14.286Z,8.20
2018-06-11T15:31:45.240Z,7.93
2018-06-11T15:34:15.497Z,9.03
2018-06-11T15:36:46.405Z,6.40
2018-06-11T15:39:16.797Z,7.57
2018-06-11T15:41:47.680Z,7.03
2018-06-11T15:44:17.875Z,6.33
2018-06-11T15:46:52.008Z,6.70
2018-06-11T15:49:22.287Z,7.00
2018-06-11T15:51:52.552Z,6.53
2018-06-11T15:54:28.229Z,6.80
2018-06-11T15:56:58.407Z,6.33
2018-06-11T15:59:28.628Z,6.00
2018-06-11T16:01:59.373Z,6.00
2018-06-11T16:04:30.330Z,6.80
2018-06-11T16:07:02.370Z,6.37
2018-06-11T16:09:32.986Z,5.20
2018-06-11T16:12:03.485Z,6.23
2018-06-11T16:14:34.038Z,5.70
2018-06-11T16:17:05.539Z,5.97
2018-06-11T16:19:36.274Z,6.03
2018-06-11T16:22:06.818Z,6.30
2018-06-11T16:24:37.193Z,6.13
2018-06-11T16:27:08.772Z,7.23
2018-06-11T16:29:39.367Z,7.27
2018-06-11T16:32:09.657Z,6.50
2018-06-11T16:34:40.090Z,6.17
2018-06-11T16:37:11.076Z,6.97
2018-06-11T16:39:41.647Z,7.00
2018-06-11T16:42:12.014Z,7.17
2018-06-11T16:44:42.273Z,6.60
2018-06-11T16:47:12.485Z,6.10
2018-06-11T16:49:42.622Z,5.87
2018-06-11T16:52:13.203Z,5.80
2018-06-11T16:54:43.379Z,5.87
2018-06-11T16:57:13.642Z,6.07
2018-06-11T16:59:47.726Z,6.70
2018-06-11T17:02:17.425Z,6.37
2018-06-11T17:04:47.527Z,5.90
2018-06-11T17:07:17.655Z,5.37
2018-06-11T17:09:49.199Z,5.10
2018-06-11T17:12:19.601Z,4.97
2018-06-11T17:14:50.858Z,5.03
2018-06-11T17:17:21.634Z,5.03
2018-06-11T17:19:53.988Z,5.97
2018-06-11T17:22:25.210Z,6.17
2018-06-11T17:24:55.390Z,5.37
2018-06-11T17:27:25.829Z,4.57
2018-06-11T17:29:57.411Z,4.90
2018-06-11T17:32:28.445Z,6.00
2018-06-11T17:34:59.285Z,4.70
2018-06-11T17:37:30.933Z,5.20
2018-06-11T17:40:02.220Z,4.77
2018-06-11T17:42:34.531Z,4.40
2018-06-11T17:45:05.148Z,4.83
2018-06-11T17:47:34.865Z,4.40
2018-06-11T17:50:05.739Z,5.10
2018-06-11T17:52:36.248Z,4.13
2018-06-11T17:55:06.570Z,4.90
2018-06-11T17:57:36.919Z,4.90
2018-06-11T18:00:13.111Z,5.20
2018-06-11T18:02:43.661Z,4.97
2018-06-11T18:05:14.489Z,6.13
2018-06-11T18:07:44.208Z,5.70
2018-06-11T18:10:14.522Z,5.00
2018-06-11T18:12:44.734Z,6.17
2018-06-11T18:15:15.339Z,5.70
2018-06-11T18:17:45.656Z,5.10
2018-06-11T18:20:15.959Z,5.80
2018-06-11T18:22:46.237Z,6.00
2018-06-11T18:25:16.521Z,5.77
2018-06-11T18:27:46.760Z,6.23
2018-06-11T18:30:17.558Z,4.87
2018-06-11T18:32:48.820Z,5.03
2018-06-11T18:35:19.129Z,4.70
2018-06-11T18:37:52.910Z,4.50
2018-06-11T18:40:23.478Z,5.80
2018-06-11T18:42:53.787Z,6.00
2018-06-11T18:45:24.032Z,4.90
2018-06-11T18:47:58.478Z,4.50
2018-06-11T18:50:28.653Z,5.10
2018-06-11T18:52:59.061Z,5.70
2018-06-11T18:55:29.788Z,5.50
2018-06-11T18:58:00.601Z,5.70
2018-06-11T19:00:31.056Z,6.00
2018-06-11T19:03:01.538Z,5.37
2018-06-11T19:05:32.032Z,6.73
2018-06-11T19:08:05.178Z,5.90
2018-06-11T19:10:41.935Z,5.80
2018-06-11T19:13:15.910Z,5.43
2018-06-11T19:15:50.253Z,5.93
2018-06-11T19:18:23.410Z,7.60
2018-06-11T19:20:57.405Z,6.23
2018-06-11T19:23:31.236Z,6.20
2018-06-11T19:26:03.243Z,5.20
2018-06-11T19:28:35.095Z,5.60
2018-06-11T19:31:07.942Z,5.10
2018-06-11T19:33:40.891Z,4.90
2018-06-11T19:36:13.909Z,5.60
2018-06-11T19:38:51.131Z,4.60
2018-06-11T19:41:25.836Z,5.23
2018-06-11T19:43:58.789Z,7.20
2018-06-11T19:46:42.012Z,5.93
2018-06-11T19:49:14.947Z,5.63
2018-06-11T19:51:48.642Z,5.17
2018-06-11T19:54:25.345Z,5.33
2018-06-11T19:56:58.708Z,5.90
2018-06-11T19:59:33.073Z,5.40
2018-06-11T20:02:07.694Z,5.67
2018-06-11T20:04:42.562Z,4.53
2018-06-11T20:07:17.629Z,5.70
2018-06-11T20:09:57.671Z,6.07
2018-06-11T20:12:30.702Z,5.50
2018-06-11T20:15:02.429Z,5.67
2018-06-11T20:17:35.146Z,5.37
2018-06-11T20:20:09.592Z,6.40
2018-06-11T20:22:43.419Z,5.60
2018-06-11T20:25:16.493Z,7.00
2018-06-11T20:27:46.701Z,7.20
2018-06-11T20:30:16.873Z,6.90
2018-06-11T20:32:47.038Z,7.37
2018-06-11T20:35:24.285Z,7.87
2018-06-11T20:37:54.445Z,7.00
2018-06-11T20:40:24.702Z,7.10
2018-06-11T20:42:55.009Z,7.33
2018-06-11T20:45:26.717Z,7.50
2018-06-11T20:47:56.890Z,7.23
2018-06-11T20:50:27.205Z,8.00
2018-06-11T20:52:57.396Z,7.63
2018-06-11T20:55:27.573Z,7.10
2018-06-11T20:57:58.210Z,7.30
2018-06-11T21:00:32.186Z,8.70
2018-06-11T21:03:02.331Z,7.07
2018-06-11T21:05:32.510Z,8.63
2018-06-11T21:08:03.993Z,8.63
2018-06-11T21:10:34.281Z,7.30
2018-06-11T21:13:04.477Z,8.50
2018-06-11T21:15:34.814Z,8.70
2018-06-11T21:18:06.390Z,8.20
2018-06-11T21:20:36.519Z,7.33
2018-06-11T21:23:06.707Z,8.03
2018-06-11T21:25:36.913Z,8.87
2018-06-11T21:28:08.069Z,8.60
2018-06-11T21:30:38.265Z,7.63
2018-06-11T21:33:08.462Z,7.67
2018-06-11T21:35:38.644Z,7.47
2018-06-11T21:38:08.861Z,7.90
2018-06-11T21:40:39.405Z,7.40
2018-06-11T21:43:09.786Z,7.97
2018-06-11T21:45:39.971Z,7.93
2018-06-11T21:48:10.084Z,7.60
2018-06-11T21:50:40.544Z,7.73
2018-06-11T21:53:11.055Z,7.67
2018-06-11T21:55:40.867Z,7.80
2018-06-11T21:58:11.215Z,7.57
2018-06-11T22:03:09.434Z,7.93
2018-06-11T22:05:40.357Z,8.17
2018-06-11T22:08:11.030Z,8.73
2018-06-11T22:10:41.670Z,7.97
2018-06-11T22:13:12.494Z,8.07
2018-06-11T22:15:43.420Z,9.53
2018-06-11T22:18:14.080Z,8.80
2018-06-11T22:20:44.762Z,8.17
2018-06-11T22:23:15.229Z,8.80
2018-06-11T22:25:45.623Z,8.17
2018-06-11T22:28:16.575Z,8.37
2018-06-11T22:30:47.114Z,8.50
2018-06-11T22:33:17.650Z,8.33
2018-06-11T22:35:48.123Z,8.83
2018-06-11T22:38:19.217Z,8.60
2018-06-11T22:40:50.608Z,8.43
2018-06-11T22:43:20.962Z,8.40
2018-06-11T22:45:51.480Z,7.07
2018-06-11T22:48:22.568Z,8.47
2018-06-11T22:50:53.306Z,8.43
2018-06-11T22:53:23.826Z,8.90
2018-06-11T22:55:54.961Z,8.83
2018-06-11T22:58:25.409Z,9.03
2018-06-11T23:00:56.096Z,8.00
2018-06-11T23:03:26.805Z,8.60
2018-06-11T23:05:57.964Z,8.77
2018-06-11T23:08:28.655Z,9.27
2018-06-11T23:10:59.214Z,8.23
2018-06-11T23:13:29.861Z,7.63
2018-06-11T23:16:00.566Z,9.27
2018-06-11T23:18:31.525Z,8.60
2018-06-11T23:21:08.636Z,8.43
2018-06-11T23:23:39.197Z,9.03
2018-06-11T23:26:09.806Z,6.70
2018-06-11T23:28:41.877Z,9.00
2018-06-11T23:31:12.598Z,8.53
2018-06-11T23:33:43.454Z,8.53
2018-06-11T23:36:13.781Z,8.40
2018-06-11T23:38:44.626Z,7.30
2018-06-11T23:41:15.020Z,8.70
2018-06-11T23:43:45.561Z,8.10
2018-06-11T23:46:15.883Z,8.97
2018-06-11T23:48:46.758Z,7.97
2018-06-11T23:51:17.292Z,7.80
2018-06-11T23:53:47.791Z,7.80
2018-06-11T23:56:18.415Z,8.40
2018-06-11T23:58:49.420Z,7.80
